Time;durP1;ratioP1;P1;durP2;ratioP2;P2;SDS_P1;SDS_P2;PMS_P1;PMS_P2;Temp;Humidity;BMP_temperature;BMP_pressure;BME280_temperature;BME280_humidity;BME280_pressure;Samples;Min_cycle;Max_cycle;Signal;HPM_P1;HPM_P2
2022/03/26 00:01:04;;;;;;;24.17;12.10;;;;;;;5.37;63.97;97663.88;5137926;27;20968;-39
2022/03/26 00:03:32;;;;;;;20.00;12.40;;;;;;;5.47;64.11;97683.69;5138016;27;20528;-41
2022/03/26 00:06:00;;;;;;;18.60;10.93;;;;;;;5.42;64.05;97686.06;5138304;27;20433;-38
2022/03/26 00:08:27;;;;;;;17.37;10.37;;;;;;;5.36;64.00;97684.13;5138194;27;20437;-38
2022/03/26 00:10:54;;;;;;;18.83;10.60;;;;;;;5.32;64.09;97688.13;5137945;27;20441;-38
2022/03/26 00:13:22;;;;;;;18.90;10.00;;;;;;;5.16;64.84;97686.47;5137896;27;20480;-39
2022/03/26 00:15:49;;;;;;;18.33;10.60;;;;;;;5.16;64.81;97685.66;5137695;27;20485;-38
2022/03/26 00:18:18;;;;;;;18.47;11.10;;;;;;;5.20;65.07;97692.19;5138095;27;20429;-36
2022/03/26 00:20:46;;;;;;;21.90;12.33;;;;;;;5.21;64.89;97694.66;5137663;27;20515;-36
2022/03/26 00:23:13;;;;;;;20.23;11.60;;;;;;;5.23;64.91;97679.50;5137692;27;20444;-36
2022/03/26 00:25:40;;;;;;;24.30;12.07;;;;;;;5.27;64.62;97691.31;5137644;27;20444;-37
2022/03/26 00:28:07;;;;;;;27.23;14.80;;;;;;;5.29;64.65;97681.41;5138007;27;20441;-38
2022/03/26 00:30:35;;;;;;;20.70;13.53;;;;;;;5.29;64.72;97691.94;5137576;27;20443;-38
2022/03/26 00:33:02;;;;;;;17.53;12.20;;;;;;;5.28;64.33;97685.03;5137777;27;20472;-37
2022/03/26 00:35:31;;;;;;;15.03;10.60;;;;;;;5.26;64.16;97697.56;5137384;27;20489;-37
2022/03/26 00:37:58;;;;;;;31.70;13.97;;;;;;;5.29;64.59;97691.94;5137661;27;20772;-38
2022/03/26 00:40:25;;;;;;;16.43;10.43;;;;;;;5.27;64.48;97693.94;5137628;27;20444;-37
2022/03/26 00:42:53;;;;;;;28.13;13.10;;;;;;;5.24;64.61;97698.75;5137301;27;20446;-37
2022/03/26 00:45:20;;;;;;;24.10;11.77;;;;;;;5.20;64.79;97693.00;5137281;27;20437;-37
2022/03/26 00:47:47;;;;;;;23.20;13.90;;;;;;;5.21;64.39;97689.41;5137547;27;20486;-37
2022/03/26 00:50:15;;;;;;;33.13;15.43;;;;;;;5.20;64.71;97693.00;5137431;27;20441;-38
2022/03/26 00:52:43;;;;;;;58.73;25.27;;;;;;;5.20;64.45;97686.94;5137516;27;20444;-37
2022/03/26 00:55:11;;;;;;;69.50;32.07;;;;;;;5.18;64.36;97684.47;5136930;27;20476;-37
2022/03/26 00:57:39;;;;;;;72.90;29.37;;;;;;;5.17;64.77;97690.75;5137016;27;20445;-37
2022/03/26 01:00:08;;;;;;;69.23;29.97;;;;;;;5.13;64.97;97698.19;5136775;27;20469;-38
2022/03/26 01:02:35;;;;;;;52.33;21.87;;;;;;;5.09;64.66;97706.63;5136915;27;20422;-37
2022/03/26 01:05:04;;;;;;;37.80;19.20;;;;;;;5.09;64.59;97698.72;5136892;27;20441;-37
2022/03/26 01:07:31;;;;;;;33.40;17.20;;;;;;;5.07;64.88;97698.09;5136711;27;20441;-37
2022/03/26 01:10:00;;;;;;;29.77;15.37;;;;;;;5.04;64.85;97694.00;5135709;27;20442;-37
2022/03/26 01:12:27;;;;;;;33.20;16.93;;;;;;;5.05;64.65;97689.53;5136969;27;20441;-37
2022/03/26 01:14:55;;;;;;;23.17;12.83;;;;;;;5.04;64.67;97694.00;5136960;27;20437;-37
2022/03/26 01:17:23;;;;;;;24.70;11.37;;;;;;;5.06;64.57;97701.72;5136930;27;20442;-37
2022/03/26 01:19:51;;;;;;;22.83;11.50;;;;;;;5.05;64.26;97700.88;5136873;27;20441;-37
2022/03/26 01:22:19;;;;;;;19.47;12.33;;;;;;;5.01;64.97;97697.00;5136513;27;20465;-38
2022/03/26 01:24:46;;;;;;;24.07;12.03;;;;;;;5.00;64.56;97708.50;5136437;27;20448;-38
2022/03/26 01:27:15;;;;;;;19.63;11.40;;;;;;;4.99;64.58;97706.03;5136773;27;20456;-37
2022/03/26 01:29:42;;;;;;;22.80;11.87;;;;;;;4.92;64.93;97696.22;5136316;27;20441;-38
2022/03/26 01:32:11;;;;;;;24.30;14.03;;;;;;;4.87;65.21;97714.38;5136310;27;20434;-37
2022/03/26 01:34:38;;;;;;;34.10;12.87;;;;;;;4.82;65.71;97705.38;5136258;27;20962;-38
2022/03/26 01:37:06;;;;;;;22.80;11.67;;;;;;;4.78;65.56;97707.56;5136418;27;20496;-37
2022/03/26 01:39:33;;;;;;;22.87;13.20;;;;;;;4.69;65.73;97700.72;5136217;27;20456;-37
2022/03/26 01:42:05;;;;;;;22.30;13.83;;;;;;;4.71;65.87;97706.59;5136444;27;20445;-37
2022/03/26 01:44:35;;;;;;;35.20;14.97;;;;;;;4.69;65.44;97701.53;5136171;27;20441;-37
2022/03/26 01:47:03;;;;;;;23.43;14.73;;;;;;;4.67;65.68;97713.25;5136378;27;20436;-38
2022/03/26 01:49:31;;;;;;;42.10;19.80;;;;;;;4.46;65.62;97677.88;5136366;27;20441;-37
2022/03/26 01:51:59;;;;;;;29.60;14.37;;;;;;;4.59;66.03;97700.16;5136236;27;20779;-37
2022/03/26 01:54:27;;;;;;;30.07;14.30;;;;;;;4.55;66.33;97696.22;5135913;27;20793;-39
2022/03/26 01:56:55;;;;;;;35.07;17.70;;;;;;;4.46;66.14;97703.34;5136125;27;20519;-38
2022/03/26 01:59:24;;;;;;;28.37;15.97;;;;;;;4.40;66.56;97693.53;5136079;27;20471;-38
2022/03/26 02:01:53;;;;;;;28.00;12.70;;;;;;;4.41;66.45;97703.03;5135586;27;20472;-38
2022/03/26 02:04:21;;;;;;;27.67;13.53;;;;;;;4.40;66.90;97702.22;5135677;27;20441;-41
2022/03/26 02:06:49;;;;;;;26.67;11.77;;;;;;;4.39;66.99;97695.34;5136018;27;20449;-39
2022/03/26 02:09:17;;;;;;;24.57;10.93;;;;;;;4.39;66.76;97697.97;5135658;27;20445;-39
2022/03/26 02:11:46;;;;;;;20.87;12.07;;;;;;;4.38;67.04;97698.97;5135898;27;20468;-39
2022/03/26 02:14:14;;;;;;;23.97;11.90;;;;;;;4.38;66.63;97703.41;5135855;27;20538;-38
2022/03/26 02:16:44;;;;;;;27.13;12.90;;;;;;;4.37;66.98;97702.59;5135385;27;20481;-38
2022/03/26 02:19:13;;;;;;;22.27;12.13;;;;;;;4.35;67.47;97701.13;5135460;27;20441;-38
2022/03/26 02:21:41;;;;;;;27.97;13.73;;;;;;;4.33;67.59;97698.69;5135474;27;20437;-38
2022/03/26 02:24:09;;;;;;;31.43;14.90;;;;;;;4.33;67.17;97696.03;5135417;27;20436;-39
2022/03/26 02:26:37;;;;;;;28.00;15.00;;;;;;;4.33;66.85;97693.41;5135541;27;20562;-39
2022/03/26 02:29:10;;;;;;;21.27;11.03;;;;;;;4.36;66.48;97700.94;5135584;27;20452;-39
2022/03/26 02:31:38;;;;;;;30.87;14.10;;;;;;;4.22;66.25;97673.59;5135723;27;20435;-38
2022/03/26 02:34:07;;;;;;;26.83;11.07;;;;;;;4.40;66.18;97694.34;5135189;27;20557;-38
2022/03/26 02:36:35;;;;;;;26.10;11.87;;;;;;;4.41;66.00;97697.78;5134999;27;20481;-38
2022/03/26 02:39:04;;;;;;;27.70;12.73;;;;;;;4.39;66.55;97695.34;5135042;27;20445;-38
2022/03/26 02:41:34;;;;;;;45.63;20.17;;;;;;;4.32;66.49;97678.63;5135316;27;20541;-38
2022/03/26 02:44:01;;;;;;;40.17;17.40;;;;;;;4.31;66.15;97693.59;5134959;27;20436;-39
2022/03/26 02:46:28;;;;;;;21.60;11.67;;;;;;;4.28;66.99;97687.84;5135271;27;20451;-39
2022/03/26 02:48:55;;;;;;;28.63;14.60;;;;;;;4.23;67.38;97691.00;5134920;27;20437;-39
2022/03/26 02:51:23;;;;;;;33.80;19.47;;;;;;;4.19;66.66;97696.78;5134837;27;20797;-38
2022/03/26 02:53:50;;;;;;;108.90;43.00;;;;;;;4.16;66.74;97708.47;5134884;27;20943;-38
2022/03/26 02:56:19;;;;;;;79.80;33.93;;;;;;;4.13;67.01;97702.72;5134938;27;20503;-39
2022/03/26 02:58:47;;;;;;;51.77;24.90;;;;;;;4.08;66.91;97695.38;5134717;27;20466;-38
2022/03/26 03:01:14;;;;;;;83.20;31.93;;;;;;;4.05;67.18;97699.16;5134532;27;20481;-38
2022/03/26 03:03:41;;;;;;;86.03;26.50;;;;;;;4.02;66.94;97704.78;5134658;27;20444;-38
2022/03/26 03:06:09;;;;;;;73.30;27.27;;;;;;;3.98;67.78;97708.72;5134923;27;20437;-38
2022/03/26 03:08:36;;;;;;;68.03;25.43;;;;;;;3.95;67.67;97711.69;5134586;27;20437;-38
2022/03/26 03:11:03;;;;;;;68.03;22.47;;;;;;;3.95;67.67;97714.31;5134511;27;20437;-39
2022/03/26 03:13:32;;;;;;;40.40;16.23;;;;;;;3.94;68.73;97707.44;5134538;27;20448;-39
2022/03/26 03:15:59;;;;;;;42.37;13.70;;;;;;;3.90;68.53;97716.66;5134435;27;20481;-39
2022/03/26 03:18:26;;;;;;;54.13;23.70;;;;;;;3.85;69.18;97708.44;5134529;27;20451;-39
2022/03/26 03:20:53;;;;;;;65.47;23.50;;;;;;;3.85;68.85;97713.69;5134451;27;20948;-38
2022/03/26 03:23:21;;;;;;;35.87;17.70;;;;;;;3.85;68.93;97708.44;5134421;27;20799;-38
2022/03/26 03:25:48;;;;;;;33.30;16.77;;;;;;;3.85;69.04;97716.31;5134319;27;20437;-38
2022/03/26 03:28:15;;;;;;;22.70;15.17;;;;;;;3.74;69.50;97708.81;5134772;27;20441;-38
2022/03/26 03:30:44;;;;;;;47.43;17.10;;;;;;;3.64;70.11;97720.38;5134661;27;20791;-38
2022/03/26 03:33:11;;;;;;;58.13;17.80;;;;;;;3.62;70.58;97729.41;5136246;27;20448;-38
2022/03/26 03:35:39;;;;;;;42.40;18.20;;;;;;;3.49;71.04;97724.69;5139001;27;20437;-39
2022/03/26 03:38:06;;;;;;;17.40;10.20;;;;;;;3.19;72.29;97728.84;5138429;27;20913;-37
2022/03/26 03:40:34;;;;;;;18.30;10.77;;;;;;;3.07;72.24;97737.03;5138576;27;20441;-38
2022/03/26 03:43:01;;;;;;;24.00;12.10;;;;;;;3.05;73.15;97732.94;5138756;27;20467;-39
2022/03/26 03:45:29;;;;;;;27.53;12.87;;;;;;;3.11;72.47;97740.16;5138456;27;20444;-39
2022/03/26 03:47:57;;;;;;;34.70;13.27;;;;;;;3.20;72.04;97740.97;5138449;27;20448;-40
2022/03/26 03:50:25;;;;;;;35.87;14.67;;;;;;;3.15;71.60;97728.34;5138296;27;20937;-39
2022/03/26 03:52:52;;;;;;;33.07;15.30;;;;;;;3.28;71.36;97754.09;5138288;27;20437;-38
2022/03/26 03:55:20;;;;;;;33.13;14.83;;;;;;;3.28;71.79;97748.84;5138210;27;20441;-38
2022/03/26 03:57:47;;;;;;;30.97;16.20;;;;;;;3.25;71.90;97747.38;5138127;27;20975;-38
2022/03/26 04:00:16;;;;;;;28.17;14.67;;;;;;;3.16;72.51;97761.50;5138249;27;20448;-38
2022/03/26 04:02:44;;;;;;;23.40;14.83;;;;;;;2.92;72.82;97757.06;5138502;27;20476;-38
2022/03/26 04:05:13;;;;;;;20.73;14.33;;;;;;;2.66;73.59;97759.84;5138422;27;20441;-38
2022/03/26 04:07:41;;;;;;;27.50;13.10;;;;;;;2.32;74.54;97742.41;5138332;27;20437;-43
2022/03/26 04:10:09;;;;;;;21.17;11.30;;;;;;;2.29;74.88;97758.47;5138759;27;20459;-40
2022/03/26 04:12:38;;;;;;;24.30;13.33;;;;;;;2.19;75.28;97758.59;5137915;27;20444;-42
2022/03/26 04:15:06;;;;;;;24.13;12.73;;;;;;;2.23;75.90;97769.56;5137820;27;20929;-39
2022/03/26 04:17:33;;;;;;;21.47;11.70;;;;;;;2.27;75.71;97768.28;5137664;27;20510;-38
2022/03/26 04:20:01;;;;;;;21.47;12.03;;;;;;;2.29;76.18;97774.19;5138150;27;20441;-40
2022/03/26 04:22:30;;;;;;;21.83;12.07;;;;;;;2.27;76.97;97770.91;5138013;27;20449;-39
2022/03/26 04:24:57;;;;;;;28.07;14.07;;;;;;;2.14;75.97;97749.59;5137658;27;20444;-39
2022/03/26 04:27:24;;;;;;;27.93;13.80;;;;;;;2.29;75.43;97778.63;5137687;27;20438;-39
2022/03/26 04:29:51;;;;;;;65.90;25.33;;;;;;;2.27;75.23;97770.91;5137885;27;20440;-40
2022/03/26 04:32:19;;;;;;;44.03;22.70;;;;;;;2.34;75.19;97771.91;5137860;27;20792;-39
2022/03/26 04:34:46;;;;;;;62.73;24.33;;;;;;;2.41;74.34;97778.16;5137832;27;20463;-41
2022/03/26 04:37:13;;;;;;;32.67;16.90;;;;;;;2.48;74.29;97762.59;5137706;27;20489;-42
2022/03/26 04:39:42;;;;;;;42.83;17.40;;;;;;;2.71;74.20;97773.28;5137407;27;20445;-38
2022/03/26 04:42:09;;;;;;;25.73;14.80;;;;;;;2.90;72.99;97766.06;5137652;27;20448;-39
2022/03/26 04:44:37;;;;;;;37.77;18.30;;;;;;;3.35;72.07;97772.63;5137337;27;20441;-39
2022/03/26 04:47:04;;;;;;;37.90;17.90;;;;;;;3.79;70.22;97777.44;5137527;27;20795;-38
2022/03/26 04:49:32;;;;;;;38.80;19.30;;;;;;;4.23;68.81;97777.75;5137447;27;20798;-38
2022/03/26 04:51:59;;;;;;;41.67;20.27;;;;;;;4.69;66.90;97775.19;5137139;27;20437;-38
2022/03/26 04:54:27;;;;;;;40.40;20.43;;;;;;;5.18;65.26;97791.59;5137466;27;20437;-39
2022/03/26 04:56:55;;;;;;;45.30;26.13;;;;;;;5.63;63.57;97782.78;5137263;27;20489;-39
2022/03/26 04:59:23;;;;;;;50.77;28.10;;;;;;;6.06;61.25;97783.00;5137006;27;20479;-40
2022/03/26 05:01:50;;;;;;;66.07;35.03;;;;;;;6.49;59.99;97787.56;5136916;27;20538;-38
2022/03/26 05:04:17;;;;;;;65.77;32.17;;;;;;;6.92;58.67;97793.69;5137186;27;20441;-40
2022/03/26 05:06:45;;;;;;;81.07;34.60;;;;;;;7.23;57.48;97779.38;5136893;27;20445;-40
2022/03/26 05:09:12;;;;;;;59.17;30.30;;;;;;;7.74;56.13;97788.88;5137166;27;20443;-39
2022/03/26 05:11:40;;;;;;;67.20;32.50;;;;;;;8.03;55.21;97779.91;5137085;27;20437;-39
2022/03/26 05:14:09;;;;;;;64.03;32.70;;;;;;;8.32;54.85;97799.97;5136677;27;20479;-39
2022/03/26 05:16:37;;;;;;;68.47;36.60;;;;;;;8.52;54.23;97788.69;5136561;27;20477;-39
2022/03/26 05:19:04;;;;;;;71.73;34.83;;;;;;;8.85;53.83;97788.75;5136630;27;20445;-39
2022/03/26 05:21:31;;;;;;;68.87;35.03;;;;;;;9.24;53.17;97784.53;5136497;27;20437;-39
2022/03/26 05:23:59;;;;;;;66.53;33.63;;;;;;;9.52;52.30;97791.47;5136470;27;20811;-39
2022/03/26 05:26:26;;;;;;;66.23;36.40;;;;;;;9.79;51.93;97793.06;5136475;27;20520;-38
2022/03/26 05:28:54;;;;;;;52.23;31.87;;;;;;;10.10;50.91;97786.25;5136715;27;20437;-38
2022/03/26 05:31:23;;;;;;;52.70;29.80;;;;;;;10.30;50.55;97804.78;5136339;27;20498;-39
2022/03/26 05:33:50;;;;;;;47.10;26.83;;;;;;;10.44;49.92;97800.25;5136271;27;20438;-39
2022/03/26 05:36:17;;;;;;;61.20;29.23;;;;;;;10.58;49.86;97804.50;5136607;27;20528;-39
2022/03/26 05:38:45;;;;;;;51.87;31.63;;;;;;;10.81;49.44;97797.81;5136638;27;20489;-40
2022/03/26 05:41:12;;;;;;;49.20;23.83;;;;;;;11.02;48.85;97805.47;5136483;27;20441;-39
2022/03/26 05:43:40;;;;;;;34.53;21.50;;;;;;;11.27;48.62;97802.84;5136225;27;20437;-41
2022/03/26 05:46:07;;;;;;;29.30;16.57;;;;;;;11.48;48.74;97806.97;5136397;27;20441;-39
2022/03/26 05:48:36;;;;;;;32.77;19.60;;;;;;;11.72;48.27;97803.69;5136045;27;20529;-39
2022/03/26 05:51:04;;;;;;;28.00;18.97;;;;;;;11.75;47.59;97792.63;5136288;27;20460;-38
2022/03/26 05:53:31;;;;;;;36.80;20.80;;;;;;;11.90;47.23;97822.41;5136122;27;20924;-39
2022/03/26 05:55:58;;;;;;;29.47;16.03;;;;;;;11.96;47.65;97820.69;5135315;27;20774;-38
2022/03/26 05:58:26;;;;;;;18.60;13.87;;;;;;;12.06;47.60;97829.00;5136938;27;20490;-39
2022/03/26 06:00:53;;;;;;;24.50;12.13;;;;;;;12.08;47.99;97825.06;5135628;27;20488;-39
2022/03/26 06:03:21;;;;;;;22.73;14.50;;;;;;;12.15;47.68;97822.34;5135944;27;20507;-39
2022/03/26 06:05:50;;;;;;;20.10;13.37;;;;;;;12.24;47.26;97826.34;5135691;27;20484;-39
2022/03/26 06:08:18;;;;;;;21.77;12.47;;;;;;;12.33;47.62;97826.06;5136401;27;20473;-39
2022/03/26 06:10:46;;;;;;;18.63;12.27;;;;;;;12.37;47.29;97822.72;5135595;27;20437;-39
2022/03/26 06:13:13;;;;;;;20.83;10.70;;;;;;;12.55;47.06;97819.22;5135555;27;20441;-39
2022/03/26 06:15:42;;;;;;;20.93;12.97;;;;;;;12.58;46.24;97823.28;5135486;27;20494;-40
2022/03/26 06:18:11;;;;;;;21.50;13.57;;;;;;;12.67;46.32;97828.09;5135382;27;20489;-39
2022/03/26 06:20:39;;;;;;;21.10;12.60;;;;;;;12.79;45.81;97824.66;5135331;27;20889;-39
2022/03/26 06:23:08;;;;;;;27.53;13.10;;;;;;;12.88;44.89;97823.31;5135340;27;20846;-39
2022/03/26 06:25:36;;;;;;;25.10;13.40;;;;;;;12.90;45.20;97826.56;5135616;27;20769;-38
2022/03/26 06:28:04;;;;;;;19.40;11.80;;;;;;;13.00;44.99;97824.19;5135330;27;20501;-40
2022/03/26 06:30:33;;;;;;;25.43;14.87;;;;;;;13.07;43.69;97826.75;5135252;27;20853;-37
2022/03/26 06:33:01;;;;;;;19.90;11.00;;;;;;;13.32;42.16;97824.75;5136014;27;20445;-36
2022/03/26 06:35:30;;;;;;;18.27;9.37;;;;;;;13.55;40.72;97823.19;5135207;27;20446;-36
2022/03/26 06:37:57;;;;;;;13.43;8.80;;;;;;;13.59;40.43;97828.88;5134959;27;20489;-37
2022/03/26 06:40:27;;;;;;;14.83;8.57;;;;;;;13.68;39.60;97830.13;5135078;27;20525;-37
2022/03/26 06:42:55;;;;;;;19.80;10.27;;;;;;;13.63;40.04;97824.69;5135063;27;20468;-37
2022/03/26 06:45:23;;;;;;;16.67;9.17;;;;;;;13.76;40.67;97821.00;5135760;27;20516;-36
2022/03/26 06:47:50;;;;;;;14.47;9.80;;;;;;;13.77;40.35;97826.09;5134927;27;20475;-36
2022/03/26 06:50:18;;;;;;;20.90;10.70;;;;;;;13.80;40.82;97830.97;5134871;27;20438;-36
2022/03/26 06:52:46;;;;;;;16.13;9.70;;;;;;;13.78;40.03;97838.41;5134791;27;20520;-38
2022/03/26 06:55:13;;;;;;;14.57;8.43;;;;;;;13.74;40.46;97839.91;5135092;27;20518;-39
2022/03/26 06:57:42;;;;;;;19.00;9.53;;;;;;;13.83;41.40;97825.19;5134702;27;20550;-36
2022/03/26 07:00:13;;;;;;;15.97;10.70;;;;;;;13.69;40.88;97839.78;5135412;27;20532;-36
2022/03/26 07:02:41;;;;;;;15.20;10.23;;;;;;;14.02;41.14;97835.72;5134705;27;20436;-37
2022/03/26 07:05:12;;;;;;;16.10;10.60;;;;;;;14.22;40.93;97833.53;5134932;27;20446;-37
2022/03/26 07:07:40;;;;;;;20.90;10.80;;;;;;;14.26;39.75;97829.34;5133797;27;20475;-37
2022/03/26 07:10:09;;;;;;;13.67;9.80;;;;;;;14.16;39.23;97831.78;5134559;27;20444;-37
2022/03/26 07:12:37;;;;;;;16.07;10.37;;;;;;;14.26;39.15;97840.03;5134590;27;20436;-37
2022/03/26 07:15:08;;;;;;;17.03;9.90;;;;;;;14.28;38.38;97827.25;5134526;27;20473;-37
2022/03/26 07:17:40;;;;;;;20.73;14.10;;;;;;;14.18;38.69;97835.03;5134763;27;20868;-37
2022/03/26 07:20:08;;;;;;;17.03;10.30;;;;;;;14.30;39.03;97829.66;5132155;27;20755;-37
2022/03/26 07:22:36;;;;;;;12.47;9.40;;;;;;;14.47;38.85;97832.41;5134345;27;20445;-37
2022/03/26 07:25:05;;;;;;;19.20;9.73;;;;;;;14.84;39.31;97829.44;5134268;27;20446;-37
2022/03/26 07:27:33;;;;;;;18.37;10.53;;;;;;;15.11;38.83;97822.47;5113693;28;20458;-37
2022/03/26 07:30:01;;;;;;;27.00;11.60;;;;;;;15.21;36.91;97839.72;5113707;28;20499;-37
2022/03/26 07:32:31;;;;;;;12.30;8.93;;;;;;;15.09;38.04;97845.97;5118633;28;20449;-37
2022/03/26 07:34:59;;;;;;;14.73;9.53;;;;;;;15.12;38.09;97829.44;5134293;27;20465;-37
2022/03/26 07:37:27;;;;;;;14.77;10.50;;;;;;;15.03;38.58;97822.84;5134470;27;20505;-38
2022/03/26 07:39:55;;;;;;;17.37;10.00;;;;;;;15.13;37.56;97831.06;5134151;27;20952;-38
2022/03/26 07:42:23;;;;;;;15.00;9.60;;;;;;;15.43;37.24;97827.28;5134292;27;20921;-37
2022/03/26 07:44:51;;;;;;;14.30;9.53;;;;;;;15.17;37.76;97822.56;5134035;27;20462;-38
2022/03/26 07:47:19;;;;;;;15.60;10.17;;;;;;;15.00;38.49;97826.00;5134095;27;20928;-38
2022/03/26 07:49:48;;;;;;;18.73;10.40;;;;;;;15.20;37.10;97827.44;5134113;27;20437;-38
2022/03/26 07:52:17;;;;;;;18.27;9.30;;;;;;;15.39;37.28;97804.75;5134095;27;21057;-38
2022/03/26 07:54:45;;;;;;;16.23;9.77;;;;;;;15.83;36.56;97831.72;5134097;27;20447;-38
2022/03/26 07:57:13;;;;;;;12.13;9.23;;;;;;;16.09;36.35;97816.00;5133983;27;20464;-38
2022/03/26 07:59:41;;;;;;;11.23;9.23;;;;;;;16.20;35.58;97815.09;5134110;27;20441;-37
2022/03/26 08:02:09;;;;;;;15.53;10.13;;;;;;;16.37;35.06;97818.53;5134060;27;20489;-39
2022/03/26 08:04:37;;;;;;;14.80;9.70;;;;;;;16.47;34.48;97825.88;5133971;27;20925;-38
2022/03/26 08:07:07;;;;;;;13.50;8.77;;;;;;;16.50;34.19;97828.06;5134331;27;20441;-38
2022/03/26 08:09:35;;;;;;;11.80;7.57;;;;;;;16.27;32.12;97815.72;5132880;28;20951;-38
2022/03/26 08:12:04;;;;;;;14.67;10.10;;;;;;;16.36;32.09;97814.22;5133959;27;20528;-37
2022/03/26 08:14:42;;;;;;;14.23;11.00;;;;;;;16.53;32.02;97803.44;5134120;27;20480;-39
2022/03/26 08:17:10;;;;;;;10.70;8.03;;;;;;;16.62;31.37;97806.50;5134143;27;20963;-37
2022/03/26 08:19:38;;;;;;;11.67;8.10;;;;;;;16.77;30.99;97809.34;5136295;27;20445;-37
2022/03/26 08:22:08;;;;;;;13.63;9.77;;;;;;;16.82;29.17;97813.19;5137800;27;20831;-36
2022/03/26 08:24:35;;;;;;;10.83;7.20;;;;;;;16.91;28.53;97803.63;5138099;27;20498;-38
2022/03/26 08:27:05;;;;;;;12.23;6.80;;;;;;;16.36;27.61;97803.50;5137764;27;20917;-38
2022/03/26 08:29:33;;;;;;;14.33;7.70;;;;;;;16.60;28.76;97803.25;5137568;27;20456;-39
2022/03/26 08:32:04;;;;;;;14.57;8.00;;;;;;;16.73;28.69;97799.38;5137516;27;20437;-38
2022/03/26 08:34:32;;;;;;;26.10;12.70;;;;;;;16.40;27.51;97786.94;5137573;27;20433;-39
2022/03/26 08:37:00;;;;;;;28.20;12.47;;;;;;;16.56;28.91;97792.25;5138047;27;20433;-39
2022/03/26 08:39:29;;;;;;;16.23;9.87;;;;;;;17.00;27.91;97796.75;5137422;27;20542;-38
2022/03/26 08:41:57;;;;;;;12.90;10.00;;;;;;;17.12;26.45;97794.72;5135695;27;20458;-39
2022/03/26 08:44:25;;;;;;;13.30;9.03;;;;;;;17.34;26.74;97794.66;5137216;27;20445;-39
2022/03/26 08:46:53;;;;;;;24.50;15.07;;;;;;;17.40;26.04;97785.59;5137257;27;20473;-38
2022/03/26 08:49:21;;;;;;;10.63;6.43;;;;;;;17.50;25.36;97789.41;5137180;27;20441;-39
2022/03/26 08:51:49;;;;;;;10.80;7.27;;;;;;;17.23;25.88;97784.06;5137162;27;20441;-39
2022/03/26 08:54:16;;;;;;;12.00;7.43;;;;;;;17.42;25.84;97784.50;5137152;27;20449;-39
2022/03/26 08:56:46;;;;;;;19.73;8.63;;;;;;;17.58;26.73;97776.31;5137110;27;20519;-39
2022/03/26 08:59:13;;;;;;;11.60;7.13;;;;;;;17.81;26.20;97774.34;5136973;27;20492;-39
2022/03/26 09:01:41;;;;;;;10.93;7.90;;;;;;;18.04;26.04;97777.72;5136321;27;20530;-39
2022/03/26 09:04:11;;;;;;;10.43;7.43;;;;;;;18.15;25.15;97784.75;5136849;27;20909;-39
2022/03/26 09:06:38;;;;;;;9.37;7.67;;;;;;;18.03;25.61;97771.53;5136759;27;20445;-39
2022/03/26 09:09:06;;;;;;;14.87;6.47;;;;;;;18.10;26.10;97771.28;5136811;27;20444;-39
2022/03/26 09:11:34;;;;;;;24.00;12.93;;;;;;;18.29;24.84;97771.66;5137115;27;20460;-36
2022/03/26 09:14:04;;;;;;;19.00;11.07;;;;;;;18.20;25.71;97752.53;5136819;27;20440;-36
2022/03/26 09:16:31;;;;;;;21.00;10.00;;;;;;;18.37;24.00;97761.22;5136165;27;20868;-36
2022/03/26 09:18:59;;;;;;;14.63;7.93;;;;;;;18.44;24.50;97762.84;5136793;27;20854;-36
2022/03/26 09:21:26;;;;;;;13.57;8.43;;;;;;;18.28;23.84;97757.38;5136888;27;20517;-37
2022/03/26 09:23:53;;;;;;;18.37;9.20;;;;;;;18.13;25.55;97760.00;5136880;27;20803;-38
2022/03/26 09:26:20;;;;;;;12.63;7.87;;;;;;;18.23;24.99;97760.06;5136524;27;20455;-37
2022/03/26 09:28:47;;;;;;;9.03;7.20;;;;;;;18.19;25.47;97748.22;5136444;27;20441;-37
2022/03/26 09:31:16;;;;;;;11.37;6.37;;;;;;;18.36;25.81;97748.81;5135541;27;20441;-37
2022/03/26 09:33:43;;;;;;;12.43;9.70;;;;;;;18.50;25.28;97742.94;5136331;27;20452;-37
2022/03/26 09:36:11;;;;;;;9.57;7.37;;;;;;;18.48;25.09;97739.75;5136299;27;20526;-37
2022/03/26 09:38:38;;;;;;;10.70;7.37;;;;;;;18.48;25.87;97739.75;5125289;27;20576;-39
2022/03/26 09:41:07;;;;;;;14.60;9.80;;;;;;;18.59;24.82;97736.00;5115521;28;20464;-39
2022/03/26 09:43:36;;;;;;;13.80;9.70;;;;;;;18.36;25.62;97743.44;5131777;27;20527;-39
2022/03/26 09:46:03;;;;;;;71.07;29.87;;;;;;;18.47;24.45;97732.75;5135983;27;20437;-39
2022/03/26 09:48:32;;;;;;;14.73;10.43;;;;;;;18.52;24.42;97724.69;5136200;27;20527;-39
2022/03/26 09:51:02;;;;;;;12.47;7.60;;;;;;;18.61;23.45;97733.88;5136134;27;20437;-39
2022/03/26 09:53:29;;;;;;;11.93;10.10;;;;;;;18.27;24.41;97734.28;5135855;27;20459;-38
2022/03/26 09:55:57;;;;;;;10.53;7.13;;;;;;;18.33;23.81;97730.56;5135966;27;20516;-39
2022/03/26 09:58:25;;;;;;;16.73;9.23;;;;;;;18.25;24.42;97725.69;5135968;27;21018;-41
2022/03/26 10:00:53;;;;;;;15.57;8.50;;;;;;;18.24;24.50;97707.13;5135395;27;20469;-40
2022/03/26 10:03:22;;;;;;;13.17;8.07;;;;;;;18.34;25.48;97707.97;5133554;27;21147;-41
2022/03/26 10:06:02;;;;;;;13.13;7.73;;;;;;;18.61;24.21;97720.41;5134169;27;20510;-41
2022/03/26 10:08:29;;;;;;;16.10;8.70;;;;;;;18.70;24.84;97724.19;5135063;27;20596;-41
2022/03/26 10:10:56;;;;;;;14.40;10.13;;;;;;;18.89;24.36;97721.84;5133957;27;20594;-42
2022/03/26 10:13:43;;;;;;;15.07;8.50;;;;;;;18.91;24.29;97716.19;5134076;27;21124;-40
2022/03/26 10:16:12;;;;;;;16.93;9.70;;;;;;;18.87;24.64;97715.91;5134553;27;20942;-40
2022/03/26 10:18:42;;;;;;;11.90;9.30;;;;;;;18.92;23.62;97709.72;5134604;27;20517;-41
2022/03/26 10:21:13;;;;;;;18.23;8.90;;;;;;;18.99;23.83;97707.56;5134280;27;20437;-40
2022/03/26 10:23:43;;;;;;;14.10;9.50;;;;;;;18.98;24.53;97716.72;5134798;27;20433;-39
2022/03/26 10:26:12;;;;;;;11.27;9.53;;;;;;;19.04;24.55;97712.97;5135454;27;20441;-39
2022/03/26 10:28:40;;;;;;;15.93;9.23;;;;;;;19.10;23.91;97713.75;5135396;27;20448;-39
2022/03/26 10:34:06;;;;;;;18.93;9.77;;;;;;;19.16;24.54;97710.81;5135062;27;20510;-39
2022/03/26 10:36:37;;;;;;;12.90;8.50;;;;;;;19.20;24.49;97705.69;5135002;27;20940;-40
2022/03/26 10:39:05;;;;;;;13.60;9.53;;;;;;;19.29;23.75;97687.13;5135187;27;20510;-40
2022/03/26 10:41:34;;;;;;;25.10;11.40;;;;;;;19.13;24.10;97692.50;5134925;27;20437;-39
2022/03/26 10:44:09;;;;;;;19.90;9.83;;;;;;;18.88;23.70;97690.63;5135059;27;20449;-38
2022/03/26 10:46:47;;;;;;;15.40;10.60;;;;;;;18.62;24.62;97676.31;5134852;27;20497;-38
2022/03/26 10:49:15;;;;;;;33.00;20.07;;;;;;;18.94;24.54;97678.78;5134772;27;20439;-39
2022/03/26 10:51:45;;;;;;;18.50;11.73;;;;;;;18.85;24.03;97687.66;5134975;27;20445;-39
2022/03/26 10:54:13;;;;;;;20.07;11.93;;;;;;;17.94;24.61;97681.72;5134578;27;20852;-38
2022/03/26 10:56:40;;;;;;;18.80;12.93;;;;;;;17.75;25.24;97676.00;5134919;27;20449;-39
2022/03/26 10:59:08;;;;;;;20.33;11.97;;;;;;;17.61;25.38;97646.91;5134519;27;20489;-38
2022/03/26 11:01:36;;;;;;;19.73;9.87;;;;;;;17.88;25.02;97651.38;5134525;27;20485;-39
2022/03/26 11:04:04;;;;;;;16.23;11.50;;;;;;;17.93;25.40;97667.50;5134837;27;20451;-39
2022/03/26 11:06:37;;;;;;;36.33;15.43;;;;;;;17.97;25.64;97655.16;5134769;27;20441;-39
2022/03/26 11:09:08;;;;;;;22.23;11.20;;;;;;;18.03;24.40;97663.25;5134544;27;20931;-39
2022/03/26 11:11:35;;;;;;;31.77;14.80;;;;;;;17.69;25.25;97659.03;5135033;27;20507;-39
2022/03/26 11:14:06;;;;;;;20.83;11.87;;;;;;;17.65;25.29;97666.00;5124645;27;20438;-38
2022/03/26 11:16:50;;;;;;;16.50;10.93;;;;;;;17.69;25.72;97652.88;5114174;28;20426;-38
2022/03/26 11:19:27;;;;;;;46.37;21.97;;;;;;;17.78;25.10;97656.66;5113702;28;20881;-38
2022/03/26 11:22:17;;;;;;;36.70;17.13;;;;;;;17.75;25.48;97641.88;5113855;28;20446;-39
2022/03/26 11:25:17;;;;;;;17.70;11.50;;;;;;;17.69;25.74;97648.31;5113690;28;20438;-39
2022/03/26 11:28:18;;;;;;;14.77;11.17;;;;;;;17.89;26.02;97639.53;5116301;27;20441;-39
2022/03/26 11:30:51;;;;;;;17.37;10.63;;;;;;;18.12;26.17;97645.56;5134220;27;20425;-39
2022/03/26 11:33:20;;;;;;;18.87;12.73;;;;;;;18.29;25.47;97640.75;5134238;27;20428;-39